Mccreary, Canada
Current Conditions -  °F | °C
As of 7:00 PM on Thursday 18 Dec 2014 (Local Time) from CYDN Reporting Station
Broken Clouds Broken Clouds  
Wind Chill:   Ceiling: 2200
Heat Index:   Visibility: 9mi
Dew Point:   Wind: 2mph
Humidity: 85%   Direction: 120°ESE
Pressure: 30.04"   Gusts: NA
Location:  50.78°N, 99.48°W
Report Text: CYDN 190100Z AUTO 12002KT 9SM BKN022 M14/M16 A3004 RMK SLP205
Loading
Personal Weather Stations






























Interactive Weather Map New forecast layout! Learn more

10-Day Weather Forecast

Advertisements
Track Severe Weather on mobile